Costa Serena — ICAZ — position and weather

sailwx.info

Track history (hours):
 
Tides and Currents Weather Stations Pressure Air Temp Water Temp Dewpoint Dewpoint Depression Visibility Wind Speed Wind Dir Waves Ship Positions

Costa Serena

Last reported at 2017-Nov-23 19:00 UTC. Time now 2017-Nov-23 22:30 UTC.
Position N 31°21' E 121°41'.

Length 290 m.

Type: Ship. MMSI: 247187600.

Date/timePositionNaut miles runAvg speedWind from/ knotsBaromVisibWave heightAir tempDewpointWater temp
2017-Nov-23 19:00N 31°21' E 121°41'4 7.9
2017-Nov-23 18:30N 31°19' E 121°45'510.0
2017-Nov-23 18:00N 31°17' E 121°50'611.1
2017-Nov-23 17:30N 31°15' E 121°57'5 9.1
2017-Nov-23 17:00N 31°14' E 122°02'510.8
2017-Nov-23 16:30N 31°13' E 122°08'611.8
2017-Nov-23 16:00N 31°09' E 122°13'5 9.8
2017-Nov-23 15:30N 31°06' E 122°18'5 9.8
2017-Nov-23 15:00N 31°07' E 122°24'5 9.4
2017-Nov-23 14:30N 31°09' E 122°29'714.3
2017-Nov-23 14:00N 31°16' E 122°30'713.8
2017-Nov-23 13:30N 31°20' E 122°37'8212.7
2017-Nov-23 07:00N 31°36' E 124°12'22118.4 310 / 301022.010.8 12.0 3.819.0
2017-Nov-22 19:00N 33°24' E 128°00'100 2.7 010 / 501016.010.8 13.0 7.422.0
2017-Nov-21 06:00N 32°24' E 126°24'15212.7 090 / 101022.010.8 13.0 7.322.0
2017-Nov-20 18:00N 31°30' E 123°36'107 6.1 040 / 151025.010.8 13.0 5.120.0
2017-Nov-20 00:26N 31°25' E 121°30'0 0.0
2017-Nov-19 23:59N 31°25' E 121°30'0 0.0
2017-Nov-19 23:30N 31°25' E 121°30'0 0.0
2017-Nov-19 22:58N 31°25' E 121°30'0 0.0
2017-Nov-19 22:28N 31°25' E 121°30'0 0.0
2017-Nov-19 21:58N 31°25' E 121°30'0 0.0
2017-Nov-19 21:28N 31°25' E 121°30'0 0.0
2017-Nov-19 21:00N 31°25' E 121°30'0 0.0
2017-Nov-19 20:30N 31°25' E 121°30'0 0.0
2017-Nov-19 20:00N 31°25' E 121°30'0 0.0
2017-Nov-19 19:30N 31°25' E 121°30'0 0.0
2017-Nov-19 19:00N 31°25' E 121°30'0 0.0
2017-Nov-19 18:29N 31°25' E 121°30'0 0.0
2017-Nov-19 17:59N 31°25' E 121°30'0 0.0
2017-Nov-19 17:29N 31°25' E 121°30'0 0.0
2017-Nov-19 16:59N 31°25' E 121°30'1 2.0
2017-Nov-19 16:30N 31°25' E 121°32'5 9.7
2017-Nov-19 16:00N 31°22' E 121°37'611.1
2017-Nov-19 15:30N 31°20' E 121°42'713.8
2017-Nov-19 15:00N 31°17' E 121°50'713.8
2017-Nov-19 14:31N 31°15' E 121°57'713.7
2017-Nov-19 14:00N 31°14' E 122°05'612.4
2017-Nov-19 13:31N 31°10' E 122°11'612.3
2017-Nov-19 13:00N 31°07' E 122°17'40414.4
2017-Nov-18 09:00N 33°48' E 129°36'142 6.2 330 / 241012.7 2.2 15.7-20.1
2017-Nov-17 10:00N 32°42' E 127°06'13111.9 090 / 221014.4 15.3-20.1
2017-Nov-16 23:00N 31°42' E 124°48'13010.8 080 / 271012.0 2.2 15.010.5
2017-Nov-16 11:00N 31°00' E 122°24'1611.2 080 / 251015.4 2.2 17.414.2
2017-Nov-16 09:31N 31°11' E 122°10'017.5
2017-Nov-16 09:30N 31°11' E 122°10'612.4
2017-Nov-16 09:01N 31°14' E 122°03'714.8
2017-Nov-16 08:30N 31°16' E 121°55'714.9
2017-Nov-16 08:00N 31°18' E 121°47'612.7
2017-Nov-16 07:30N 31°21' E 121°40'611.5
2017-Nov-16 07:00N 31°24' E 121°34'3 6.5
2017-Nov-16 06:30N 31°25' E 121°30'0 0.1
2017-Nov-16 06:00N 31°25' E 121°30'0 0.0
2017-Nov-16 05:30N 31°25' E 121°30'0 0.0
2017-Nov-16 05:00N 31°25' E 121°30'0 0.0
2017-Nov-16 04:30N 31°25' E 121°30'0 0.0
2017-Nov-16 04:00N 31°25' E 121°30'0 0.0
2017-Nov-16 03:29N 31°25' E 121°30'0 0.0
2017-Nov-16 03:00N 31°25' E 121°30'0 0.0
2017-Nov-16 02:30N 31°25' E 121°30'0 0.0
2017-Nov-16 01:59N 31°25' E 121°30'0 0.0
2017-Nov-16 01:29N 31°25' E 121°30'0 0.0
2017-Nov-16 00:59N 31°25' E 121°30'0 0.0
2017-Nov-16 00:26N 31°25' E 121°30'0 0.0
2017-Nov-15 23:59N 31°25' E 121°30'0 0.0
2017-Nov-15 23:28N 31°25' E 121°30'0 0.0
2017-Nov-15 22:58N 31°25' E 121°30'0 0.7
2017-Nov-15 22:31N 31°25' E 121°31'3 6.6
2017-Nov-15 22:01N 31°24' E 121°34'611.9
2017-Nov-15 21:31N 31°21' E 121°40'611.7
2017-Nov-15 21:01N 31°18' E 121°47'611.4
2017-Nov-15 20:30N 31°16' E 121°53'510.6
2017-Nov-15 20:01N 31°15' E 121°59'510.1
2017-Nov-15 19:30N 31°14' E 122°05'510.2
2017-Nov-15 19:01N 31°11' E 122°10'6375.2
2017-Nov-15 19:00N 31°06' E 122°06'816.0 090 / 151020.010.8 17.010.018.0
2017-Nov-15 18:30N 31°08' E 122°15'611.4
2017-Nov-15 17:57N 31°06' E 122°22'4 9.2
2017-Nov-15 17:29N 31°07' E 122°27'28512.7
2017-Nov-14 19:00N 32°06' E 127°54'   010 / 251017.010.8 16.010.824.0
Track history (hours):
 
Tides and Currents Weather Stations Pressure Air Temp Water Temp Dewpoint Dewpoint Depression Visibility Wind Speed Wind Dir Waves Ship Positions

Costa Serena

Last reported at 2017-Nov-23 19:00 UTC. Time now 2017-Nov-23 22:30 UTC.
Position N 31°21' E 121°41'.

Length 290 m.

Type: Ship. MMSI: 247187600.

Date/timePositionNaut miles runAvg speedWind from/ knotsBaromVisibWave heightAir tempDewpointWater temp
2017-Nov-23 19:00N 31°21' E 121°41'4 7.9
2017-Nov-23 18:30N 31°19' E 121°45'510.0
2017-Nov-23 18:00N 31°17' E 121°50'611.1
2017-Nov-23 17:30N 31°15' E 121°57'5 9.1
2017-Nov-23 17:00N 31°14' E 122°02'510.8
2017-Nov-23 16:30N 31°13' E 122°08'611.8
2017-Nov-23 16:00N 31°09' E 122°13'5 9.8
2017-Nov-23 15:30N 31°06' E 122°18'5 9.8
2017-Nov-23 15:00N 31°07' E 122°24'5 9.4
2017-Nov-23 14:30N 31°09' E 122°29'714.3
2017-Nov-23 14:00N 31°16' E 122°30'713.8
2017-Nov-23 13:30N 31°20' E 122°37'8212.7
2017-Nov-23 07:00N 31°36' E 124°12'22118.4 310 / 301022.010.8 12.0 3.819.0
2017-Nov-22 19:00N 33°24' E 128°00'100 2.7 010 / 501016.010.8 13.0 7.422.0
2017-Nov-21 06:00N 32°24' E 126°24'15212.7 090 / 101022.010.8 13.0 7.322.0
2017-Nov-20 18:00N 31°30' E 123°36'107 6.1 040 / 151025.010.8 13.0 5.120.0
2017-Nov-20 00:26N 31°25' E 121°30'0 0.0
2017-Nov-19 23:59N 31°25' E 121°30'0 0.0
2017-Nov-19 23:30N 31°25' E 121°30'0 0.0
2017-Nov-19 22:58N 31°25' E 121°30'0 0.0
2017-Nov-19 22:28N 31°25' E 121°30'0 0.0
2017-Nov-19 21:58N 31°25' E 121°30'0 0.0
2017-Nov-19 21:28N 31°25' E 121°30'0 0.0
2017-Nov-19 21:00N 31°25' E 121°30'0 0.0
2017-Nov-19 20:30N 31°25' E 121°30'0 0.0
2017-Nov-19 20:00N 31°25' E 121°30'0 0.0
2017-Nov-19 19:30N 31°25' E 121°30'0 0.0
2017-Nov-19 19:00N 31°25' E 121°30'0 0.0
2017-Nov-19 18:29N 31°25' E 121°30'0 0.0
2017-Nov-19 17:59N 31°25' E 121°30'0 0.0
2017-Nov-19 17:29N 31°25' E 121°30'0 0.0
2017-Nov-19 16:59N 31°25' E 121°30'1 2.0
2017-Nov-19 16:30N 31°25' E 121°32'5 9.7
2017-Nov-19 16:00N 31°22' E 121°37'611.1
2017-Nov-19 15:30N 31°20' E 121°42'713.8
2017-Nov-19 15:00N 31°17' E 121°50'713.8
2017-Nov-19 14:31N 31°15' E 121°57'713.7
2017-Nov-19 14:00N 31°14' E 122°05'612.4
2017-Nov-19 13:31N 31°10' E 122°11'612.3
2017-Nov-19 13:00N 31°07' E 122°17'40414.4
2017-Nov-18 09:00N 33°48' E 129°36'142 6.2 330 / 241012.7 2.2 15.7-20.1
2017-Nov-17 10:00N 32°42' E 127°06'13111.9 090 / 221014.4 15.3-20.1
2017-Nov-16 23:00N 31°42' E 124°48'13010.8 080 / 271012.0 2.2 15.010.5
2017-Nov-16 11:00N 31°00' E 122°24'1611.2 080 / 251015.4 2.2 17.414.2
2017-Nov-16 09:31N 31°11' E 122°10'017.5
2017-Nov-16 09:30N 31°11' E 122°10'612.4
2017-Nov-16 09:01N 31°14' E 122°03'714.8
2017-Nov-16 08:30N 31°16' E 121°55'714.9
2017-Nov-16 08:00N 31°18' E 121°47'612.7
2017-Nov-16 07:30N 31°21' E 121°40'611.5
2017-Nov-16 07:00N 31°24' E 121°34'3 6.5
2017-Nov-16 06:30N 31°25' E 121°30'0 0.1
2017-Nov-16 06:00N 31°25' E 121°30'0 0.0
2017-Nov-16 05:30N 31°25' E 121°30'0 0.0
2017-Nov-16 05:00N 31°25' E 121°30'0 0.0
2017-Nov-16 04:30N 31°25' E 121°30'0 0.0
2017-Nov-16 04:00N 31°25' E 121°30'0 0.0
2017-Nov-16 03:29N 31°25' E 121°30'0 0.0
2017-Nov-16 03:00N 31°25' E 121°30'0 0.0
2017-Nov-16 02:30N 31°25' E 121°30'0 0.0
2017-Nov-16 01:59N 31°25' E 121°30'0 0.0
2017-Nov-16 01:29N 31°25' E 121°30'0 0.0
2017-Nov-16 00:59N 31°25' E 121°30'0 0.0
2017-Nov-16 00:26N 31°25' E 121°30'0 0.0
2017-Nov-15 23:59N 31°25' E 121°30'0 0.0
2017-Nov-15 23:28N 31°25' E 121°30'0 0.0
2017-Nov-15 22:58N 31°25' E 121°30'0 0.7
2017-Nov-15 22:31N 31°25' E 121°31'3 6.6
2017-Nov-15 22:01N 31°24' E 121°34'611.9
2017-Nov-15 21:31N 31°21' E 121°40'611.7
2017-Nov-15 21:01N 31°18' E 121°47'611.4
2017-Nov-15 20:30N 31°16' E 121°53'510.6
2017-Nov-15 20:01N 31°15' E 121°59'510.1
2017-Nov-15 19:30N 31°14' E 122°05'510.2
2017-Nov-15 19:01N 31°11' E 122°10'6375.2
2017-Nov-15 19:00N 31°06' E 122°06'816.0 090 / 151020.010.8 17.010.018.0
2017-Nov-15 18:30N 31°08' E 122°15'611.4
2017-Nov-15 17:57N 31°06' E 122°22'4 9.2
2017-Nov-15 17:29N 31°07' E 122°27'28512.7
2017-Nov-14 19:00N 32°06' E 127°54'   010 / 251017.010.8 16.010.824.0

Dump ship's entire track history